createdAt,value
2022-09-01T00:00:09.913Z,94.27
2022-09-01T00:01:09.947Z,94.68
2022-09-01T00:02:09.948Z,95.29
2022-09-01T00:03:10.151Z,95.29
2022-09-01T00:04:09.929Z,95.03
2022-09-01T00:05:09.848Z,95.29
2022-09-01T00:06:09.825Z,95.09
2022-09-01T00:07:09.848Z,94.89
2022-09-01T00:08:09.748Z,95.23
2022-09-01T00:09:09.847Z,95.34
2022-09-01T00:10:10.009Z,94.93
2022-09-01T00:11:09.810Z,95.13
2022-09-01T00:12:09.757Z,95.34
2022-09-01T00:13:09.752Z,94.32
2022-09-01T00:14:12.447Z,94.26
2022-09-01T00:15:10.689Z,94.62
2022-09-01T00:16:09.809Z,94.77
2022-09-01T00:17:09.858Z,95.38
2022-09-01T00:18:09.719Z,95.28
2022-09-01T00:19:09.705Z,94.97
2022-09-01T00:20:09.618Z,95.79
2022-09-01T00:21:09.928Z,95.44
2022-09-01T00:22:09.631Z,95.69
2022-09-01T00:23:09.589Z,95.69
2022-09-01T00:24:09.615Z,96.00
2022-09-01T00:25:09.553Z,96.20
2022-09-01T00:26:09.563Z,96.00
2022-09-01T00:27:09.594Z,95.69
2022-09-01T00:28:09.725Z,96.20
2022-09-01T00:29:09.826Z,96.20
2022-09-01T00:30:09.536Z,96.20
2022-09-01T00:31:09.542Z,96.25
2022-09-01T00:32:09.594Z,96.04
2022-09-01T00:33:09.577Z,95.84
2022-09-01T00:34:10.094Z,95.84
2022-09-01T00:35:09.475Z,95.73
2022-09-01T00:36:09.454Z,95.73
2022-09-01T00:37:09.491Z,95.73
2022-09-01T00:38:09.451Z,95.12
2022-09-01T00:39:09.474Z,95.22
2022-09-01T00:40:09.504Z,94.92
2022-09-01T00:41:09.396Z,95.12
2022-09-01T00:42:09.394Z,95.22
2022-09-01T00:43:09.368Z,95.22
2022-09-01T00:44:09.385Z,95.53
2022-09-01T00:45:09.378Z,95.53
2022-09-01T00:46:09.441Z,95.32
2022-09-01T00:47:09.356Z,94.96
2022-09-01T00:48:09.348Z,94.92
2022-09-01T00:49:09.344Z,95.26
2022-09-01T00:50:09.295Z,94.96
2022-09-01T00:51:09.298Z,95.02
2022-09-01T00:52:09.339Z,95.06
2022-09-01T00:53:09.290Z,95.67
2022-09-01T00:54:09.302Z,95.17
2022-09-01T00:55:16.783Z,95.26
2022-09-01T00:56:09.190Z,94.96
2022-09-01T00:57:09.141Z,95.37
2022-09-01T00:58:19.954Z,95.06
2022-09-01T00:59:10.118Z,95.26
2022-09-01T01:00:09.119Z,95.37
2022-09-01T01:01:09.189Z,95.94
2022-09-01T01:02:09.118Z,95.78
2022-09-01T01:03:09.091Z,95.88
2022-09-01T01:04:09.067Z,95.84
2022-09-01T01:05:09.046Z,95.53
2022-09-01T01:06:10.055Z,95.57
2022-09-01T01:07:09.538Z,95.57
2022-09-01T01:08:09.020Z,95.73
2022-09-01T01:09:09.053Z,95.73
2022-09-01T01:10:08.993Z,95.63
2022-09-01T01:11:08.984Z,96.04
2022-09-01T01:12:08.984Z,96.34
2022-09-01T01:13:08.965Z,96.14
2022-09-01T01:14:08.964Z,96.14
2022-09-01T01:15:08.939Z,95.84
2022-09-01T01:16:08.939Z,96.14
2022-09-01T01:17:08.956Z,95.84
2022-09-01T01:18:08.912Z,96.45
2022-09-01T01:19:08.918Z,96.75
2022-09-01T01:20:08.897Z,96.34
2022-09-01T01:21:08.867Z,97.16
2022-09-01T01:22:08.856Z,96.96
2022-09-01T01:23:08.843Z,97.27
2022-09-01T01:24:08.868Z,97.16
2022-09-01T01:25:08.820Z,97.37
2022-09-01T01:26:08.828Z,97.33
2022-09-01T01:27:08.814Z,97.42
2022-09-01T01:28:08.785Z,97.83
2022-09-01T01:29:08.776Z,97.83
2022-09-01T01:30:09.360Z,97.42
2022-09-01T01:31:08.799Z,97.42
2022-09-01T01:32:08.761Z,97.22
2022-09-01T01:33:08.725Z,97.42
2022-09-01T01:34:08.710Z,97.83
2022-09-01T01:35:08.703Z,97.83
2022-09-01T01:36:08.728Z,97.74
2022-09-01T01:37:08.679Z,97.74
2022-09-01T01:38:08.673Z,97.42
2022-09-01T01:39:08.660Z,97.63
2022-09-01T01:40:08.688Z,97.63
2022-09-01T01:41:08.638Z,97.53
2022-09-01T01:42:09.369Z,97.42
2022-09-01T01:43:08.637Z,98.04
2022-09-01T01:44:08.627Z,97.83
2022-09-01T01:45:08.593Z,97.83
2022-09-01T01:46:08.661Z,97.63
2022-09-01T01:47:08.583Z,97.74
2022-09-01T01:48:08.706Z,97.74
2022-09-01T01:49:08.546Z,97.63
2022-09-01T01:50:08.530Z,97.33
2022-09-01T01:51:08.526Z,97.63
2022-09-01T01:52:08.507Z,97.63
2022-09-01T01:53:11.322Z,97.83
2022-09-01T01:54:08.491Z,97.94
2022-09-01T01:55:08.497Z,97.63
2022-09-01T01:56:08.485Z,97.02
2022-09-01T01:57:08.460Z,97.42
2022-09-01T01:58:08.453Z,97.22
2022-09-01T01:59:08.424Z,97.42
2022-09-01T02:00:08.428Z,97.83
2022-09-01T02:01:08.426Z,97.83
2022-09-01T02:02:08.464Z,97.83
2022-09-01T02:03:08.429Z,97.94
2022-09-01T02:04:08.372Z,97.74
2022-09-01T02:05:08.359Z,97.98
2022-09-01T02:06:08.356Z,97.98
2022-09-01T02:07:08.351Z,97.67
2022-09-01T02:08:08.328Z,97.67
2022-09-01T02:09:08.318Z,97.57
2022-09-01T02:10:08.326Z,97.33
2022-09-01T02:11:08.320Z,97.42
2022-09-01T02:12:08.295Z,97.63
2022-09-01T02:13:08.269Z,97.33
2022-09-01T02:14:08.251Z,97.42
2022-09-01T02:15:08.244Z,97.63
2022-09-01T02:16:08.255Z,97.94
2022-09-01T02:17:08.305Z,97.83
2022-09-01T02:18:08.239Z,97.63
2022-09-01T02:19:08.205Z,97.53
2022-09-01T02:20:08.184Z,97.53
2022-09-01T02:21:08.262Z,97.63
2022-09-01T02:22:08.166Z,97.53
2022-09-01T02:23:08.351Z,97.53
2022-09-01T02:24:08.166Z,97.63
2022-09-01T02:25:08.133Z,98.24
2022-09-01T02:26:16.933Z,98.04
2022-09-01T02:27:09.143Z,98.14
2022-09-01T02:28:08.091Z,98.24
2022-09-01T02:29:08.098Z,98.04
2022-09-01T02:30:08.082Z,98.24
2022-09-01T02:31:08.154Z,98.14
2022-09-01T02:32:08.046Z,98.04
2022-09-01T02:33:08.036Z,97.83
2022-09-01T02:34:08.045Z,98.04
2022-09-01T02:35:08.036Z,98.35
2022-09-01T02:36:08.019Z,98.55
2022-09-01T02:37:07.988Z,98.45
2022-09-01T02:38:07.977Z,98.35
2022-09-01T02:39:08.529Z,98.35
2022-09-01T02:40:08.032Z,98.35
2022-09-01T02:41:07.944Z,98.10
2022-09-01T02:42:07.934Z,98.75
2022-09-01T02:43:07.917Z,98.65
2022-09-01T02:44:07.905Z,98.65
2022-09-01T02:45:07.931Z,98.61
2022-09-01T02:46:07.935Z,98.55
2022-09-01T02:47:07.873Z,98.50
2022-09-01T02:48:07.909Z,98.61
2022-09-01T02:49:07.916Z,98.61
2022-09-01T02:50:07.857Z,98.61
2022-09-01T02:51:07.826Z,98.50
2022-09-01T02:52:07.816Z,98.61
2022-09-01T02:53:07.805Z,98.71
2022-09-01T02:54:07.825Z,98.71
2022-09-01T02:55:07.778Z,98.71
2022-09-01T02:56:07.789Z,98.75
2022-09-01T02:57:07.769Z,98.50
2022-09-01T02:58:07.750Z,98.50
2022-09-01T02:59:07.743Z,98.40
2022-09-01T03:00:07.766Z,98.81
2022-09-01T03:01:07.722Z,98.71
2022-09-01T03:02:07.721Z,98.61
2022-09-01T03:03:07.710Z,98.40
2022-09-01T03:04:07.683Z,98.50
2022-09-01T03:05:07.765Z,98.40
2022-09-01T03:06:07.659Z,98.61
2022-09-01T03:07:07.671Z,98.50
2022-09-01T03:08:07.630Z,98.61
2022-09-01T03:09:07.687Z,98.61
2022-09-01T03:10:07.612Z,98.71
2022-09-01T03:11:10.946Z,98.61
2022-09-01T03:12:08.626Z,98.50
2022-09-01T03:13:07.601Z,98.61
2022-09-01T03:14:08.145Z,98.50
2022-09-01T03:15:09.007Z,98.61
2022-09-01T03:16:08.646Z,98.71
2022-09-01T03:17:08.528Z,98.50
2022-09-01T03:18:07.525Z,98.61
2022-09-01T03:19:07.505Z,98.81
2022-09-01T03:20:07.491Z,98.40
2022-09-01T03:21:07.496Z,98.65
2022-09-01T03:22:07.568Z,98.61
2022-09-01T03:23:07.478Z,98.61
2022-09-01T03:24:07.456Z,98.50
2022-09-01T03:25:07.449Z,98.61
2022-09-01T03:26:07.421Z,98.50
2022-09-01T03:27:07.434Z,98.30
2022-09-01T03:28:07.411Z,98.30
2022-09-01T03:29:07.400Z,98.61
2022-09-01T03:30:07.406Z,98.61
2022-09-01T03:31:07.369Z,98.61
2022-09-01T03:32:07.446Z,98.30
2022-09-01T03:33:07.372Z,98.50
2022-09-01T03:34:07.329Z,98.50
2022-09-01T03:35:07.320Z,98.50
2022-09-01T03:36:14.785Z,98.20
2022-09-01T03:37:08.319Z,98.40
2022-09-01T03:38:07.292Z,98.40
2022-09-01T03:39:07.301Z,98.55
2022-09-01T03:40:07.294Z,98.81
2022-09-01T03:41:07.253Z,98.50
2022-09-01T03:42:07.294Z,98.61
2022-09-01T03:43:07.230Z,98.81
2022-09-01T03:44:07.217Z,98.61
2022-09-01T03:45:07.210Z,98.50
2022-09-01T03:46:07.248Z,98.30
2022-09-01T03:47:07.233Z,98.30
2022-09-01T03:48:07.186Z,98.40
2022-09-01T03:49:07.158Z,98.30
2022-09-01T03:50:07.170Z,98.30
2022-09-01T03:51:07.136Z,98.35
2022-09-01T03:52:07.126Z,98.30
2022-09-01T03:53:07.112Z,98.30
2022-09-01T03:54:07.149Z,98.50
2022-09-01T03:55:07.100Z,98.30
2022-09-01T03:56:07.082Z,98.30
2022-09-01T03:57:07.089Z,98.40
2022-09-01T03:58:10.121Z,98.61
2022-09-01T03:59:07.584Z,97.99
2022-09-01T04:00:07.045Z,98.40
2022-09-01T04:01:08.275Z,98.61
2022-09-01T04:02:08.473Z,98.61
2022-09-01T04:03:07.030Z,98.71
2022-09-01T04:04:06.996Z,98.81
2022-09-01T04:05:08.544Z,98.81
2022-09-01T04:06:07.026Z,98.61
2022-09-01T04:07:06.948Z,98.61
2022-09-01T04:08:06.940Z,98.81
2022-09-01T04:09:06.951Z,98.61
2022-09-01T04:10:06.929Z,98.61
2022-09-01T04:11:06.910Z,98.30
2022-09-01T04:12:06.994Z,98.40
2022-09-01T04:13:06.882Z,98.61
2022-09-01T04:14:06.905Z,98.71
2022-09-01T04:15:06.859Z,98.50
2022-09-01T04:16:06.886Z,98.81
2022-09-01T04:17:06.836Z,98.30
2022-09-01T04:18:06.863Z,98.50
2022-09-01T04:19:06.831Z,98.40
2022-09-01T04:20:06.926Z,98.30
2022-09-01T04:21:06.796Z,98.71
2022-09-01T04:22:06.784Z,98.40
2022-09-01T04:23:06.773Z,98.50
2022-09-01T04:24:06.818Z,98.50
2022-09-01T04:25:06.746Z,98.30
2022-09-01T04:26:06.738Z,98.61
2022-09-01T04:27:06.743Z,98.81
2022-09-01T04:28:06.712Z,98.71
2022-09-01T04:29:06.723Z,98.61
2022-09-01T04:30:06.690Z,98.30
2022-09-01T04:31:06.691Z,98.30
2022-09-01T04:32:06.713Z,98.71
2022-09-01T04:33:06.655Z,98.81
2022-09-01T04:34:06.668Z,98.61
2022-09-01T04:35:06.630Z,98.71
2022-09-01T04:36:06.619Z,99.11
2022-09-01T04:37:06.646Z,98.81
2022-09-01T04:38:06.597Z,99.52
2022-09-01T04:39:06.596Z,98.91
2022-09-01T04:40:06.643Z,99.02
2022-09-01T04:41:06.567Z,98.81
2022-09-01T04:42:06.567Z,99.38
2022-09-01T04:43:06.664Z,99.52
2022-09-01T04:44:06.531Z,99.11
2022-09-01T04:45:10.534Z,98.66
2022-09-01T04:46:06.567Z,98.61
2022-09-01T04:47:06.509Z,98.61
2022-09-01T04:48:06.498Z,98.46
2022-09-01T04:49:06.479Z,98.46
2022-09-01T04:50:06.465Z,99.07
2022-09-01T04:51:06.450Z,99.11
2022-09-01T04:52:06.436Z,98.71
2022-09-01T04:53:06.467Z,98.97
2022-09-01T04:54:06.414Z,99.07
2022-09-01T04:55:06.412Z,99.48
2022-09-01T04:56:06.388Z,98.77
2022-09-01T04:57:06.377Z,98.91
2022-09-01T04:58:10.107Z,99.58
2022-09-01T04:59:07.355Z,98.97
2022-09-01T05:00:06.341Z,99.38
2022-09-01T05:01:06.433Z,98.97
2022-09-01T05:02:06.427Z,98.71
2022-09-01T05:03:06.326Z,98.40
2022-09-01T05:04:06.321Z,98.66
2022-09-01T05:05:06.284Z,98.81
2022-09-01T05:06:06.277Z,98.36
2022-09-01T05:07:06.280Z,98.50
2022-09-01T05:08:06.253Z,98.46
2022-09-01T05:09:06.266Z,98.25
2022-09-01T05:10:06.230Z,98.56
2022-09-01T05:11:06.220Z,98.56
2022-09-01T05:12:06.206Z,98.46
2022-09-01T05:13:06.210Z,98.56
2022-09-01T05:14:06.218Z,98.05
2022-09-01T05:15:06.200Z,98.56
2022-09-01T05:16:06.227Z,98.86
2022-09-01T05:17:06.147Z,98.56
2022-09-01T05:18:06.155Z,98.25
2022-09-01T05:19:06.151Z,98.66
2022-09-01T05:20:06.115Z,98.56
2022-09-01T05:21:06.101Z,98.25
2022-09-01T05:22:06.096Z,98.56
2022-09-01T05:23:06.077Z,98.46
2022-09-01T05:24:06.134Z,98.66
2022-09-01T05:25:06.053Z,98.41
2022-09-01T05:26:06.048Z,98.21
2022-09-01T05:27:06.046Z,98.52
2022-09-01T05:28:06.040Z,98.41
2022-09-01T05:29:06.027Z,98.52
2022-09-01T05:30:06.025Z,98.52
2022-09-01T05:31:06.054Z,98.21
2022-09-01T05:32:06.000Z,98.21
2022-09-01T05:33:05.970Z,98.52
2022-09-01T05:34:05.970Z,98.52
2022-09-01T05:35:05.947Z,98.47
2022-09-01T05:36:05.961Z,98.47
2022-09-01T05:37:05.928Z,98.47
2022-09-01T05:38:05.909Z,98.27
2022-09-01T05:39:05.912Z,98.36
2022-09-01T05:40:05.964Z,98.57
2022-09-01T05:41:05.880Z,98.57
2022-09-01T05:42:05.872Z,98.68
2022-09-01T05:43:05.847Z,98.36
2022-09-01T05:44:05.854Z,98.43
2022-09-01T05:45:05.823Z,98.32
2022-09-01T05:46:07.258Z,98.43
2022-09-01T05:47:05.826Z,98.43
2022-09-01T05:48:05.792Z,98.52
2022-09-01T05:49:05.811Z,98.22
2022-09-01T05:50:05.767Z,98.43
2022-09-01T05:51:05.772Z,98.32
2022-09-01T05:52:05.762Z,98.32
2022-09-01T05:53:05.732Z,98.52
2022-09-01T05:54:06.754Z,98.52
2022-09-01T05:55:05.709Z,98.52
2022-09-01T05:56:05.701Z,98.52
2022-09-01T05:57:30.451Z,98.07
2022-09-01T05:58:07.065Z,98.07
2022-09-01T06:00:06.666Z,98.07
2022-09-01T06:01:06.301Z,98.48
2022-09-01T06:02:05.812Z,98.48
2022-09-01T06:03:05.687Z,98.27
2022-09-01T06:04:05.617Z,98.48
2022-09-01T06:05:05.597Z,98.23
2022-09-01T06:06:05.593Z,98.23
2022-09-01T06:07:07.950Z,98.23
2022-09-01T06:08:05.560Z,97.92
2022-09-01T06:09:05.553Z,98.43
2022-09-01T06:10:05.559Z,98.02
2022-09-01T06:11:05.525Z,98.43
2022-09-01T06:12:05.541Z,98.33
2022-09-01T06:13:05.498Z,97.98
2022-09-01T06:14:05.492Z,97.98
2022-09-01T06:15:05.498Z,98.18
2022-09-01T06:16:05.517Z,97.78
2022-09-01T06:17:05.483Z,97.78
2022-09-01T06:18:05.512Z,97.37
2022-09-01T06:19:05.435Z,97.98
2022-09-01T06:20:05.430Z,97.88
2022-09-01T06:21:05.409Z,97.57
2022-09-01T06:22:05.414Z,97.67
2022-09-01T06:23:05.413Z,97.83
2022-09-01T06:24:05.388Z,97.53
2022-09-01T06:25:05.384Z,97.63
2022-09-01T06:26:05.362Z,98.03
2022-09-01T06:27:05.338Z,97.17
2022-09-01T06:28:05.328Z,96.97
2022-09-01T06:29:05.317Z,96.87
2022-09-01T06:30:05.371Z,97.48
2022-09-01T06:31:05.363Z,97.33
2022-09-01T06:32:05.286Z,96.83
2022-09-01T06:33:05.292Z,97.39
2022-09-01T06:34:05.262Z,96.88
2022-09-01T06:35:05.330Z,96.37
2022-09-01T06:36:05.246Z,96.68
2022-09-01T06:37:05.232Z,96.58
2022-09-01T06:38:05.247Z,96.53
2022-09-01T06:39:05.200Z,95.98
2022-09-01T06:40:05.251Z,93.74
2022-09-01T06:41:05.176Z,93.18
2022-09-01T06:42:06.324Z,93.03
2022-09-01T06:43:05.176Z,93.64
2022-09-01T06:44:05.173Z,93.40
2022-09-01T06:45:05.163Z,92.89
2022-09-01T06:46:05.135Z,93.05
2022-09-01T06:47:05.213Z,92.49
2022-09-01T06:48:05.138Z,92.80
2022-09-01T06:49:05.087Z,92.55
2022-09-01T06:50:05.076Z,92.82
2022-09-01T06:51:21.466Z,92.97
2022-09-01T06:53:57.345Z,92.54
2022-09-01T06:55:07.691Z,91.69
2022-09-01T06:55:56.415Z,91.03
2022-09-01T06:56:56.272Z,90.65
2022-09-01T06:58:05.643Z,89.09
2022-09-01T06:58:57.231Z,88.65
2022-09-01T06:59:56.119Z,87.60
2022-09-01T07:00:56.122Z,85.94
2022-09-01T07:02:01.469Z,84.74
2022-09-01T07:02:57.205Z,84.05
2022-09-01T07:03:56.089Z,82.50
2022-09-01T07:04:56.105Z,82.16
2022-09-01T07:06:01.253Z,80.65
2022-09-01T07:07:01.631Z,78.80
2022-09-01T07:08:12.397Z,76.29
2022-09-01T07:10:17.679Z,75.92
2022-09-01T07:13:12.422Z,75.84
2022-09-01T07:18:06.946Z,72.16
2022-09-01T07:19:05.953Z,72.86
2022-09-01T07:21:36.708Z,73.03
2022-09-01T07:22:07.269Z,72.89
2022-09-01T07:23:06.627Z,68.99
2022-09-01T07:24:07.820Z,69.46
2022-09-01T07:25:11.545Z,70.36
2022-09-01T07:26:06.777Z,69.66
2022-09-01T07:27:09.283Z,67.46
2022-09-01T07:28:05.883Z,66.66
2022-09-01T07:29:06.366Z,65.75
2022-09-01T07:30:13.424Z,65.16
2022-09-01T07:35:06.825Z,63.48
2022-09-01T07:43:06.759Z,67.76
2022-09-01T07:44:05.556Z,66.96
2022-09-01T07:45:35.218Z,66.46
2022-09-01T07:47:52.405Z,64.45
2022-09-01T07:48:06.710Z,65.45
2022-09-01T07:50:24.839Z,67.55
2022-09-01T07:51:35.724Z,65.45
2022-09-01T07:52:06.509Z,64.86
2022-09-01T07:53:05.457Z,65.95
2022-09-01T07:54:05.450Z,65.52
2022-09-01T07:55:05.437Z,66.82
2022-09-01T07:56:05.423Z,63.62
2022-09-01T07:57:05.394Z,64.55
2022-09-01T07:58:05.377Z,66.52
2022-09-01T07:59:05.371Z,65.33
2022-09-01T08:00:05.360Z,65.16
2022-09-01T08:01:05.425Z,62.95
2022-09-01T08:02:05.412Z,64.25
2022-09-01T08:03:05.339Z,64.15
2022-09-01T08:04:05.315Z,66.66
2022-09-01T08:05:05.326Z,66.96
2022-09-01T08:06:05.295Z,64.75
2022-09-01T08:07:05.299Z,64.75
2022-09-01T08:08:18.536Z,65.62
2022-09-01T08:09:06.259Z,65.22
2022-09-01T08:10:05.269Z,66.29
2022-09-01T08:11:05.469Z,65.29
2022-09-01T08:12:05.247Z,65.69
2022-09-01T08:13:05.228Z,64.69
2022-09-01T08:14:05.201Z,61.19
2022-09-01T08:16:07.471Z,63.92
2022-09-01T08:18:06.240Z,62.95
2022-09-01T08:19:16.081Z,65.12
2022-09-01T08:20:06.154Z,63.79
2022-09-01T08:21:05.127Z,64.12
2022-09-01T08:22:05.115Z,62.39
2022-09-01T08:23:05.102Z,63.29
2022-09-01T08:24:05.092Z,63.39
2022-09-01T08:25:05.145Z,63.06
2022-09-01T08:26:05.070Z,61.96
2022-09-01T08:27:05.059Z,63.36
2022-09-01T08:28:05.048Z,62.34
2022-09-01T08:29:05.055Z,61.04
2022-09-01T08:30:05.181Z,60.93
2022-09-01T08:31:10.968Z,60.24
2022-09-01T08:32:08.931Z,57.87
2022-09-01T08:33:12.191Z,57.69
2022-09-01T08:34:05.981Z,59.09
2022-09-01T08:35:04.980Z,58.29
2022-09-01T08:36:04.975Z,59.19
2022-09-01T08:37:04.946Z,59.30
2022-09-01T08:38:04.965Z,59.99
2022-09-01T08:39:05.609Z,59.30
2022-09-01T08:40:04.989Z,58.56
2022-09-01T08:41:05.046Z,56.89
2022-09-01T08:42:04.894Z,58.19
2022-09-01T08:43:04.880Z,59.49
2022-09-01T08:44:04.871Z,56.37
2022-09-01T08:45:04.880Z,56.09
2022-09-01T08:46:04.882Z,57.50
2022-09-01T08:47:04.858Z,60.10
2022-09-01T08:48:37.151Z,58.06
2022-09-01T08:50:06.237Z,56.59
2022-09-01T08:51:11.591Z,56.46
2022-09-01T08:52:05.797Z,56.96
2022-09-01T08:53:12.019Z,56.37
2022-09-01T08:54:05.781Z,55.97
2022-09-01T08:55:04.752Z,56.77
2022-09-01T08:56:04.746Z,57.76
2022-09-01T08:57:04.782Z,55.07
2022-09-01T08:58:04.729Z,56.39
2022-09-01T08:59:04.724Z,57.57
2022-09-01T09:00:04.932Z,56.07
2022-09-01T09:01:04.689Z,55.36
2022-09-01T09:02:04.966Z,55.66
2022-09-01T09:03:04.766Z,53.89
2022-09-01T09:04:04.650Z,52.34
2022-09-01T09:05:15.559Z,52.34
2022-09-01T09:06:05.638Z,52.27
2022-09-01T09:07:04.635Z,53.97
2022-09-01T09:08:07.951Z,54.57
2022-09-01T09:09:04.607Z,56.17
2022-09-01T09:10:04.587Z,52.57
2022-09-01T09:11:04.712Z,51.17
2022-09-01T09:12:04.604Z,50.99
2022-09-01T09:13:04.554Z,51.29
2022-09-01T09:14:04.567Z,50.51
2022-09-01T09:15:04.550Z,51.62
2022-09-01T09:16:08.372Z,47.93
2022-09-01T09:17:04.529Z,49.46
2022-09-01T09:18:04.494Z,49.98
2022-09-01T09:19:04.539Z,52.39
2022-09-01T09:20:04.494Z,51.21
2022-09-01T09:21:04.483Z,54.13
2022-09-01T09:22:04.475Z,49.40
2022-09-01T09:23:04.438Z,52.64
2022-09-01T09:24:04.825Z,52.32
2022-09-01T09:25:04.433Z,51.21
2022-09-01T09:26:04.525Z,53.62
2022-09-01T09:27:04.438Z,52.19
2022-09-01T09:28:04.380Z,52.47
2022-09-01T09:29:04.372Z,53.34
2022-09-01T09:30:09.233Z,54.72
2022-09-01T09:31:05.397Z,55.40
2022-09-01T09:32:04.337Z,51.17
2022-09-01T09:34:05.315Z,51.14
2022-09-01T09:35:04.328Z,52.14
2022-09-01T09:36:04.324Z,52.32
2022-09-01T09:37:04.638Z,49.84
2022-09-01T09:38:04.280Z,49.34
2022-09-01T09:39:04.280Z,52.57
2022-09-01T09:40:04.309Z,53.47
2022-09-01T09:41:25.760Z,54.77
2022-09-01T09:42:06.331Z,54.77
2022-09-01T09:43:04.218Z,51.27
2022-09-01T09:44:04.207Z,52.37
2022-09-01T09:45:04.196Z,52.37
2022-09-01T09:46:04.508Z,51.34
2022-09-01T09:47:13.391Z,52.02
2022-09-01T09:48:05.158Z,52.72
2022-09-01T09:49:04.208Z,53.59
2022-09-01T09:50:05.283Z,50.89
2022-09-01T09:51:04.557Z,49.07
2022-09-01T09:52:04.197Z,49.99
2022-09-01T09:53:04.130Z,48.17
2022-09-01T09:54:04.224Z,51.04
2022-09-01T09:55:04.942Z,51.64
2022-09-01T09:56:04.124Z,54.02
2022-09-01T09:57:04.838Z,50.72
2022-09-01T09:58:04.064Z,52.64
2022-09-01T09:59:04.067Z,52.04
2022-09-01T10:00:04.087Z,52.25
2022-09-01T10:01:05.161Z,52.74
2022-09-01T10:02:04.034Z,54.64
2022-09-01T10:03:04.697Z,52.42
2022-09-01T10:04:05.076Z,53.02
2022-09-01T10:05:03.999Z,54.89
2022-09-01T10:06:03.984Z,54.27
2022-09-01T10:07:03.953Z,52.27
2022-09-01T10:08:03.945Z,52.14
2022-09-01T10:09:04.044Z,51.62
2022-09-01T10:10:04.182Z,52.22
2022-09-01T10:11:03.908Z,56.27
2022-09-01T10:12:03.944Z,50.60
2022-09-01T10:13:03.954Z,51.70
2022-09-01T10:14:03.941Z,51.42
2022-09-01T10:15:04.684Z,55.01
2022-09-01T10:16:05.681Z,52.62
2022-09-01T10:17:06.372Z,51.62
2022-09-01T10:19:07.091Z,51.37
2022-09-01T10:20:04.906Z,52.67
2022-09-01T10:21:04.345Z,51.70
2022-09-01T10:22:03.857Z,54.09
2022-09-01T10:23:03.895Z,52.00
2022-09-01T10:24:21.225Z,50.60
2022-09-01T10:25:04.816Z,50.99
2022-09-01T10:26:09.075Z,49.82
2022-09-01T10:27:08.325Z,49.25
2022-09-01T10:28:04.741Z,52.57
2022-09-01T10:29:04.007Z,52.74
2022-09-01T10:30:20.063Z,52.27
2022-09-01T10:31:05.235Z,51.69
2022-09-01T10:32:30.616Z,50.89
2022-09-01T10:33:15.588Z,53.49
2022-09-01T10:34:05.638Z,52.32
2022-09-01T10:35:03.954Z,53.94
2022-09-01T10:36:06.992Z,52.42
2022-09-01T10:37:03.687Z,52.62
2022-09-01T10:38:03.657Z,55.40
2022-09-01T10:39:06.189Z,59.97
2022-09-01T10:40:04.726Z,55.84
2022-09-01T10:41:03.703Z,54.74
2022-09-01T10:42:03.683Z,54.44
2022-09-01T10:43:05.622Z,55.34
2022-09-01T10:44:03.653Z,55.24
2022-09-01T10:45:03.573Z,57.04
2022-09-01T10:46:06.037Z,51.04
2022-09-01T10:47:06.201Z,51.25
2022-09-01T10:48:03.579Z,55.44
2022-09-01T10:49:04.421Z,53.72
2022-09-01T10:50:07.605Z,50.60
2022-09-01T10:51:04.604Z,53.96
2022-09-01T10:52:08.574Z,53.04
2022-09-01T10:53:04.954Z,51.72
2022-09-01T10:54:03.547Z,50.50
2022-09-01T10:55:03.453Z,49.10
2022-09-01T10:56:04.916Z,47.31
2022-09-01T10:57:09.022Z,49.10
2022-09-01T10:58:09.511Z,48.19
2022-09-01T11:00:04.680Z,50.85
2022-09-01T11:01:11.082Z,51.95
2022-09-01T11:03:29.811Z,49.83
2022-09-01T11:04:04.492Z,47.54
2022-09-01T11:05:03.402Z,47.27
2022-09-01T11:06:13.873Z,49.78
2022-09-01T11:07:11.924Z,47.89
2022-09-01T11:08:15.163Z,49.53
2022-09-01T11:09:04.284Z,48.95
2022-09-01T11:10:11.258Z,49.87
2022-09-01T11:11:04.277Z,49.80
2022-09-01T11:12:03.346Z,50.82
2022-09-01T11:13:03.356Z,50.95
2022-09-01T11:14:03.262Z,53.74
2022-09-01T11:15:03.236Z,56.04
2022-09-01T11:16:03.295Z,52.52
2022-09-01T11:17:03.371Z,51.92
2022-09-01T11:18:03.279Z,53.74
2022-09-01T11:19:03.241Z,52.04
2022-09-01T11:20:03.209Z,53.24
2022-09-01T11:21:03.175Z,56.04
2022-09-01T11:22:03.193Z,55.54
2022-09-01T11:23:03.523Z,53.54
2022-09-01T11:24:03.419Z,54.14
2022-09-01T11:25:11.836Z,54.14
2022-09-01T11:26:19.935Z,55.14
2022-09-01T11:27:04.089Z,52.92
2022-09-01T11:28:03.055Z,56.68
2022-09-01T11:29:03.057Z,55.66
2022-09-01T11:30:03.062Z,56.30
2022-09-01T11:31:03.024Z,55.38
2022-09-01T11:32:03.057Z,56.72
2022-09-01T11:33:03.013Z,49.88
2022-09-01T11:34:03.008Z,47.79
2022-09-01T11:35:02.977Z,52.14
2022-09-01T11:36:02.971Z,51.03
2022-09-01T11:37:02.971Z,50.73
2022-09-01T11:38:03.124Z,49.43
2022-09-01T11:39:03.024Z,49.71
2022-09-01T11:40:02.979Z,49.61
2022-09-01T11:41:02.917Z,50.80
2022-09-01T11:42:04.406Z,49.49
2022-09-01T11:43:02.888Z,46.48
2022-09-01T11:44:02.931Z,47.80
2022-09-01T11:45:02.924Z,47.80
2022-09-01T11:46:02.998Z,46.01
2022-09-01T11:47:02.888Z,49.91
2022-09-01T11:48:03.122Z,48.16
2022-09-01T11:49:02.940Z,48.86
2022-09-01T11:50:02.878Z,51.25
2022-09-01T11:51:02.864Z,50.98
2022-09-01T11:52:02.904Z,49.58
2022-09-01T11:53:05.415Z,50.70
2022-09-01T11:54:02.853Z,50.80
2022-09-01T11:55:02.864Z,52.00
2022-09-01T11:56:02.810Z,51.40
2022-09-01T11:57:02.820Z,53.99
2022-09-01T11:58:02.803Z,53.89
2022-09-01T11:59:02.848Z,55.05
2022-09-01T12:00:02.817Z,52.47
2022-09-01T12:01:02.783Z,50.00
2022-09-01T12:02:02.905Z,53.29
2022-09-01T12:03:02.952Z,51.10
2022-09-01T12:04:02.751Z,47.53
2022-09-01T12:05:02.701Z,51.54
2022-09-01T12:06:02.671Z,54.76
2022-09-01T12:07:02.703Z,51.37
2022-09-01T12:08:02.659Z,50.67
2022-09-01T12:09:02.640Z,52.27
2022-09-01T12:10:02.632Z,50.30
2022-09-01T12:11:02.600Z,50.77
2022-09-01T12:12:02.634Z,51.29
2022-09-01T12:13:02.633Z,51.77
2022-09-01T12:14:03.399Z,51.67
2022-09-01T12:15:06.042Z,50.87
2022-09-01T12:16:19.211Z,52.59
2022-09-01T12:17:03.616Z,52.79
2022-09-01T12:18:02.563Z,50.90
2022-09-01T12:19:02.643Z,53.19
2022-09-01T12:20:02.509Z,50.90
2022-09-01T12:21:02.485Z,49.62
2022-09-01T12:22:02.493Z,51.04
2022-09-01T12:23:02.513Z,51.04
2022-09-01T12:24:02.453Z,49.85
2022-09-01T12:25:02.533Z,52.94
2022-09-01T12:26:02.498Z,52.72
2022-09-01T12:27:02.517Z,49.92
2022-09-01T12:28:02.584Z,49.32
2022-09-01T12:29:02.468Z,50.82
2022-09-01T12:30:02.538Z,54.71
2022-09-01T12:31:02.483Z,51.20
2022-09-01T12:32:03.492Z,55.19
2022-09-01T12:34:03.458Z,50.70
2022-09-01T12:35:09.246Z,52.67
2022-09-01T12:36:03.333Z,51.77
2022-09-01T12:37:02.315Z,50.77
2022-09-01T12:38:03.074Z,49.87
2022-09-01T12:39:02.347Z,53.66
2022-09-01T12:40:02.315Z,54.36
2022-09-01T12:41:02.453Z,50.87
2022-09-01T12:42:02.326Z,53.44
2022-09-01T12:43:02.308Z,52.25
2022-09-01T12:44:02.326Z,54.04
2022-09-01T12:45:02.271Z,51.75
2022-09-01T12:46:02.892Z,54.44
2022-09-01T12:47:02.245Z,54.53
2022-09-01T12:48:02.203Z,52.74
2022-09-01T12:49:02.326Z,53.84
2022-09-01T12:50:03.455Z,50.74
2022-09-01T12:51:02.211Z,51.47
2022-09-01T12:52:02.191Z,50.87
2022-09-01T12:53:02.189Z,50.79
2022-09-01T12:54:04.812Z,52.57
2022-09-01T12:55:11.324Z,55.58
2022-09-01T12:56:02.110Z,50.60
2022-09-01T12:57:02.098Z,54.11
2022-09-01T12:58:02.088Z,54.02
2022-09-01T12:59:02.104Z,54.41
2022-09-01T13:00:02.072Z,56.01
2022-09-01T13:01:02.218Z,52.92
2022-09-01T13:02:02.166Z,54.54
2022-09-01T13:03:02.022Z,54.84
2022-09-01T13:04:02.075Z,52.74
2022-09-01T13:05:02.038Z,54.04
2022-09-01T13:06:01.996Z,55.36
2022-09-01T13:07:01.964Z,56.07
2022-09-01T13:08:01.992Z,54.47
2022-09-01T13:09:01.941Z,55.47
2022-09-01T13:10:01.927Z,53.17
2022-09-01T13:11:01.935Z,53.30
2022-09-01T13:12:06.667Z,54.99
2022-09-01T13:13:02.926Z,53.92
2022-09-01T13:14:01.889Z,55.52
2022-09-01T13:15:01.948Z,58.42
2022-09-01T13:16:01.912Z,56.12
2022-09-01T13:17:01.853Z,54.92
2022-09-01T13:18:01.839Z,55.22
2022-09-01T13:19:26.545Z,57.12
2022-09-01T13:20:02.886Z,54.35
2022-09-01T13:21:01.827Z,56.65
2022-09-01T13:22:01.848Z,55.15
2022-09-01T13:23:01.787Z,56.95
2022-09-01T13:24:01.797Z,56.42